sensor_id;sensor_type;location;lat;lon;timestamp;P1;durP1;ratioP1;P2;durP2;ratioP2
22754;SDS011;11544;42.020;23.094;2022-10-14T00:01:26;11.95;;;8.30;;
22754;SDS011;11544;42.020;23.094;2022-10-14T00:03:52;12.90;;;8.77;;
22754;SDS011;11544;42.020;23.094;2022-10-14T00:06:20;12.18;;;6.95;;
22754;SDS011;11544;42.020;23.094;2022-10-14T00:08:48;11.30;;;6.90;;
22754;SDS011;11544;42.020;23.094;2022-10-14T00:11:15;12.25;;;7.38;;
22754;SDS011;11544;42.020;23.094;2022-10-14T00:13:43;9.77;;;6.43;;
22754;SDS011;11544;42.020;23.094;2022-10-14T00:16:16;8.90;;;6.03;;
22754;SDS011;11544;42.020;23.094;2022-10-14T00:18:45;12.07;;;7.20;;
22754;SDS011;11544;42.020;23.094;2022-10-14T00:21:11;11.48;;;6.68;;
22754;SDS011;11544;42.020;23.094;2022-10-14T00:23:37;13.32;;;6.05;;
22754;SDS011;11544;42.020;23.094;2022-10-14T00:26:03;8.80;;;6.00;;
22754;SDS011;11544;42.020;23.094;2022-10-14T00:28:31;8.70;;;6.22;;
22754;SDS011;11544;42.020;23.094;2022-10-14T00:31:00;8.90;;;5.63;;
22754;SDS011;11544;42.020;23.094;2022-10-14T00:33:27;9.60;;;5.70;;
22754;SDS011;11544;42.020;23.094;2022-10-14T00:35:59;10.77;;;7.00;;
22754;SDS011;11544;42.020;23.094;2022-10-14T00:38:32;8.00;;;5.47;;
22754;SDS011;11544;42.020;23.094;2022-10-14T00:40:59;7.25;;;5.10;;
22754;SDS011;11544;42.020;23.094;2022-10-14T00:43:26;7.78;;;5.25;;
22754;SDS011;11544;42.020;23.094;2022-10-14T00:45:52;8.80;;;5.95;;
22754;SDS011;11544;42.020;23.094;2022-10-14T00:48:20;12.85;;;8.23;;
22754;SDS011;11544;42.020;23.094;2022-10-14T00:50:50;13.60;;;8.02;;
22754;SDS011;11544;42.020;23.094;2022-10-14T00:53:19;10.93;;;6.05;;
22754;SDS011;11544;42.020;23.094;2022-10-14T00:55:45;11.25;;;6.72;;
22754;SDS011;11544;42.020;23.094;2022-10-14T00:58:12;11.13;;;6.32;;
22754;SDS011;11544;42.020;23.094;2022-10-14T01:00:38;10.30;;;6.25;;
22754;SDS011;11544;42.020;23.094;2022-10-14T01:03:08;9.73;;;6.28;;
22754;SDS011;11544;42.020;23.094;2022-10-14T01:05:36;14.23;;;6.82;;
22754;SDS011;11544;42.020;23.094;2022-10-14T01:08:32;9.68;;;6.10;;
22754;SDS011;11544;42.020;23.094;2022-10-14T01:11:14;7.90;;;5.45;;
22754;SDS011;11544;42.020;23.094;2022-10-14T01:13:50;8.15;;;5.72;;
22754;SDS011;11544;42.020;23.094;2022-10-14T01:16:51;8.38;;;5.70;;
22754;SDS011;11544;42.020;23.094;2022-10-14T01:22:21;11.50;;;5.75;;
22754;SDS011;11544;42.020;23.094;2022-10-14T01:24:59;9.25;;;5.88;;
22754;SDS011;11544;42.020;23.094;2022-10-14T01:30:24;9.15;;;6.47;;
22754;SDS011;11544;42.020;23.094;2022-10-14T01:33:06;8.63;;;6.05;;
22754;SDS011;11544;42.020;23.094;2022-10-14T01:38:38;9.27;;;5.78;;
22754;SDS011;11544;42.020;23.094;2022-10-14T01:41:22;9.35;;;5.80;;
22754;SDS011;11544;42.020;23.094;2022-10-14T01:43:52;9.15;;;5.53;;
22754;SDS011;11544;42.020;23.094;2022-10-14T01:46:21;10.30;;;6.47;;
22754;SDS011;11544;42.020;23.094;2022-10-14T01:48:50;11.80;;;7.07;;
22754;SDS011;11544;42.020;23.094;2022-10-14T01:51:21;19.85;;;12.27;;
22754;SDS011;11544;42.020;23.094;2022-10-14T01:54:03;17.98;;;11.70;;
22754;SDS011;11544;42.020;23.094;2022-10-14T01:56:35;17.90;;;11.15;;
22754;SDS011;11544;42.020;23.094;2022-10-14T01:59:02;20.85;;;11.60;;
22754;SDS011;11544;42.020;23.094;2022-10-14T02:01:30;21.83;;;14.75;;
22754;SDS011;11544;42.020;23.094;2022-10-14T02:03:56;21.95;;;14.02;;
22754;SDS011;11544;42.020;23.094;2022-10-14T02:06:24;24.15;;;15.13;;
22754;SDS011;11544;42.020;23.094;2022-10-14T02:08:59;23.33;;;14.13;;
22754;SDS011;11544;42.020;23.094;2022-10-14T02:22:52;14.32;;;9.52;;
22754;SDS011;11544;42.020;23.094;2022-10-14T02:25:25;12.18;;;8.38;;
22754;SDS011;11544;42.020;23.094;2022-10-14T02:27:54;15.38;;;9.50;;
22754;SDS011;11544;42.020;23.094;2022-10-14T02:30:23;22.25;;;11.80;;
22754;SDS011;11544;42.020;23.094;2022-10-14T02:32:54;26.13;;;14.50;;
22754;SDS011;11544;42.020;23.094;2022-10-14T02:35:23;21.20;;;14.05;;
22754;SDS011;11544;42.020;23.094;2022-10-14T02:37:49;23.15;;;15.30;;
22754;SDS011;11544;42.020;23.094;2022-10-14T02:40:19;21.30;;;14.52;;
22754;SDS011;11544;42.020;23.094;2022-10-14T02:42:53;23.50;;;14.25;;
22754;SDS011;11544;42.020;23.094;2022-10-14T02:45:18;17.45;;;9.38;;
22754;SDS011;11544;42.020;23.094;2022-10-14T02:47:45;11.90;;;7.57;;
22754;SDS011;11544;42.020;23.094;2022-10-14T02:50:12;10.25;;;6.97;;
22754;SDS011;11544;42.020;23.094;2022-10-14T02:52:38;12.18;;;7.32;;
22754;SDS011;11544;42.020;23.094;2022-10-14T02:55:04;15.18;;;8.82;;
22754;SDS011;11544;42.020;23.094;2022-10-14T02:57:30;17.38;;;9.18;;
22754;SDS011;11544;42.020;23.094;2022-10-14T02:59:55;13.40;;;8.32;;
22754;SDS011;11544;42.020;23.094;2022-10-14T03:02:22;12.30;;;7.82;;
22754;SDS011;11544;42.020;23.094;2022-10-14T03:04:48;10.73;;;7.82;;
22754;SDS011;11544;42.020;23.094;2022-10-14T03:07:14;12.13;;;8.18;;
22754;SDS011;11544;42.020;23.094;2022-10-14T03:09:44;10.10;;;7.57;;
22754;SDS011;11544;42.020;23.094;2022-10-14T03:12:10;13.80;;;7.22;;
22754;SDS011;11544;42.020;23.094;2022-10-14T03:14:37;12.13;;;7.65;;
22754;SDS011;11544;42.020;23.094;2022-10-14T03:17:06;10.82;;;6.75;;
22754;SDS011;11544;42.020;23.094;2022-10-14T03:19:33;13.15;;;7.25;;
22754;SDS011;11544;42.020;23.094;2022-10-14T03:21:59;11.88;;;7.10;;
22754;SDS011;11544;42.020;23.094;2022-10-14T03:24:25;10.27;;;6.65;;
22754;SDS011;11544;42.020;23.094;2022-10-14T03:27:11;11.98;;;6.60;;
22754;SDS011;11544;42.020;23.094;2022-10-14T03:29:36;11.77;;;7.28;;
22754;SDS011;11544;42.020;23.094;2022-10-14T03:32:17;11.57;;;7.28;;
22754;SDS011;11544;42.020;23.094;2022-10-14T03:35:01;10.90;;;7.57;;
22754;SDS011;11544;42.020;23.094;2022-10-14T03:37:27;12.10;;;8.27;;
22754;SDS011;11544;42.020;23.094;2022-10-14T03:39:56;13.57;;;8.27;;
22754;SDS011;11544;42.020;23.094;2022-10-14T03:42:22;11.48;;;7.63;;
22754;SDS011;11544;42.020;23.094;2022-10-14T03:44:49;16.50;;;8.52;;
22754;SDS011;11544;42.020;23.094;2022-10-14T03:47:35;12.82;;;7.68;;
22754;SDS011;11544;42.020;23.094;2022-10-14T03:50:00;12.38;;;7.32;;
22754;SDS011;11544;42.020;23.094;2022-10-14T03:52:43;14.18;;;9.75;;
22754;SDS011;11544;42.020;23.094;2022-10-14T03:55:16;16.58;;;9.35;;
22754;SDS011;11544;42.020;23.094;2022-10-14T03:57:45;16.63;;;9.85;;
22754;SDS011;11544;42.020;23.094;2022-10-14T04:00:11;13.32;;;7.88;;
22754;SDS011;11544;42.020;23.094;2022-10-14T04:02:40;11.68;;;6.70;;
22754;SDS011;11544;42.020;23.094;2022-10-14T04:05:13;9.70;;;6.38;;
22754;SDS011;11544;42.020;23.094;2022-10-14T04:07:42;10.90;;;5.20;;
22754;SDS011;11544;42.020;23.094;2022-10-14T04:10:08;10.43;;;5.88;;
22754;SDS011;11544;42.020;23.094;2022-10-14T04:12:36;9.70;;;5.88;;
22754;SDS011;11544;42.020;23.094;2022-10-14T04:15:16;8.88;;;6.20;;
22754;SDS011;11544;42.020;23.094;2022-10-14T04:18:01;9.70;;;4.90;;
22754;SDS011;11544;42.020;23.094;2022-10-14T04:20:27;8.25;;;4.90;;
22754;SDS011;11544;42.020;23.094;2022-10-14T04:22:53;6.53;;;4.40;;
22754;SDS011;11544;42.020;23.094;2022-10-14T04:25:20;9.55;;;4.85;;
22754;SDS011;11544;42.020;23.094;2022-10-14T04:27:49;6.72;;;4.57;;
22754;SDS011;11544;42.020;23.094;2022-10-14T04:30:15;10.65;;;5.97;;
22754;SDS011;11544;42.020;23.094;2022-10-14T04:32:50;7.90;;;5.13;;
22754;SDS011;11544;42.020;23.094;2022-10-14T04:35:17;7.60;;;5.20;;
22754;SDS011;11544;42.020;23.094;2022-10-14T04:37:46;9.75;;;5.10;;
22754;SDS011;11544;42.020;23.094;2022-10-14T04:40:19;8.85;;;5.85;;
22754;SDS011;11544;42.020;23.094;2022-10-14T04:45:21;9.32;;;5.03;;
22754;SDS011;11544;42.020;23.094;2022-10-14T04:47:57;12.25;;;5.82;;
22754;SDS011;11544;42.020;23.094;2022-10-14T04:50:24;8.43;;;4.15;;
22754;SDS011;11544;42.020;23.094;2022-10-14T04:53:10;7.50;;;4.95;;
22754;SDS011;11544;42.020;23.094;2022-10-14T04:55:40;7.72;;;5.20;;
22754;SDS011;11544;42.020;23.094;2022-10-14T04:58:09;7.53;;;5.03;;
22754;SDS011;11544;42.020;23.094;2022-10-14T05:00:39;6.85;;;4.75;;
22754;SDS011;11544;42.020;23.094;2022-10-14T05:03:28;8.05;;;5.43;;
22754;SDS011;11544;42.020;23.094;2022-10-14T05:05:55;8.38;;;5.32;;
22754;SDS011;11544;42.020;23.094;2022-10-14T05:08:21;9.40;;;6.00;;
22754;SDS011;11544;42.020;23.094;2022-10-14T05:10:51;9.45;;;5.88;;
22754;SDS011;11544;42.020;23.094;2022-10-14T05:13:31;9.10;;;5.63;;
22754;SDS011;11544;42.020;23.094;2022-10-14T05:16:01;7.15;;;5.30;;
22754;SDS011;11544;42.020;23.094;2022-10-14T05:18:28;11.15;;;5.90;;
22754;SDS011;11544;42.020;23.094;2022-10-14T05:21:00;8.07;;;5.93;;
22754;SDS011;11544;42.020;23.094;2022-10-14T05:23:40;11.23;;;6.22;;
22754;SDS011;11544;42.020;23.094;2022-10-14T05:26:06;8.98;;;6.15;;
22754;SDS011;11544;42.020;23.094;2022-10-14T05:28:35;11.43;;;6.57;;
22754;SDS011;11544;42.020;23.094;2022-10-14T05:31:05;11.23;;;6.90;;
22754;SDS011;11544;42.020;23.094;2022-10-14T05:33:36;10.20;;;5.78;;
22754;SDS011;11544;42.020;23.094;2022-10-14T05:36:02;9.38;;;5.93;;
22754;SDS011;11544;42.020;23.094;2022-10-14T05:38:31;9.13;;;6.10;;
22754;SDS011;11544;42.020;23.094;2022-10-14T05:40:58;9.77;;;6.13;;
22754;SDS011;11544;42.020;23.094;2022-10-14T05:43:24;9.70;;;6.03;;
22754;SDS011;11544;42.020;23.094;2022-10-14T05:45:51;11.43;;;6.65;;
22754;SDS011;11544;42.020;23.094;2022-10-14T05:48:17;9.27;;;6.03;;
22754;SDS011;11544;42.020;23.094;2022-10-14T05:50:44;9.60;;;5.45;;
22754;SDS011;11544;42.020;23.094;2022-10-14T05:53:15;9.07;;;6.30;;
22754;SDS011;11544;42.020;23.094;2022-10-14T05:55:45;9.02;;;6.00;;
22754;SDS011;11544;42.020;23.094;2022-10-14T05:58:11;11.43;;;6.65;;
22754;SDS011;11544;42.020;23.094;2022-10-14T06:00:39;10.95;;;6.72;;
22754;SDS011;11544;42.020;23.094;2022-10-14T06:03:10;11.25;;;6.43;;
22754;SDS011;11544;42.020;23.094;2022-10-14T06:05:38;9.90;;;6.80;;
22754;SDS011;11544;42.020;23.094;2022-10-14T06:08:04;9.23;;;6.75;;
22754;SDS011;11544;42.020;23.094;2022-10-14T06:10:34;11.18;;;7.38;;
22754;SDS011;11544;42.020;23.094;2022-10-14T06:13:00;12.48;;;7.18;;
22754;SDS011;11544;42.020;23.094;2022-10-14T06:15:26;12.98;;;7.90;;
22754;SDS011;11544;42.020;23.094;2022-10-14T06:17:53;11.07;;;7.57;;
22754;SDS011;11544;42.020;23.094;2022-10-14T06:20:20;15.13;;;7.55;;
22754;SDS011;11544;42.020;23.094;2022-10-14T06:22:46;12.77;;;7.93;;
22754;SDS011;11544;42.020;23.094;2022-10-14T06:25:11;17.90;;;9.63;;
22754;SDS011;11544;42.020;23.094;2022-10-14T06:27:37;13.23;;;8.88;;
22754;SDS011;11544;42.020;23.094;2022-10-14T06:30:03;18.50;;;8.98;;
22754;SDS011;11544;42.020;23.094;2022-10-14T06:32:29;15.80;;;10.02;;
22754;SDS011;11544;42.020;23.094;2022-10-14T06:34:55;18.35;;;9.98;;
22754;SDS011;11544;42.020;23.094;2022-10-14T06:37:20;14.00;;;8.82;;
22754;SDS011;11544;42.020;23.094;2022-10-14T06:39:46;14.85;;;8.73;;
22754;SDS011;11544;42.020;23.094;2022-10-14T06:42:11;13.75;;;8.35;;
22754;SDS011;11544;42.020;23.094;2022-10-14T06:44:37;17.40;;;9.27;;
22754;SDS011;11544;42.020;23.094;2022-10-14T06:47:04;13.88;;;9.20;;
22754;SDS011;11544;42.020;23.094;2022-10-14T06:49:31;10.40;;;7.93;;
22754;SDS011;11544;42.020;23.094;2022-10-14T06:51:56;13.00;;;8.32;;
22754;SDS011;11544;42.020;23.094;2022-10-14T06:54:22;16.02;;;8.50;;
22754;SDS011;11544;42.020;23.094;2022-10-14T06:56:47;14.40;;;9.15;;
22754;SDS011;11544;42.020;23.094;2022-10-14T06:59:13;14.73;;;8.27;;
22754;SDS011;11544;42.020;23.094;2022-10-14T07:01:39;12.75;;;8.25;;
22754;SDS011;11544;42.020;23.094;2022-10-14T07:04:05;16.70;;;11.05;;
22754;SDS011;11544;42.020;23.094;2022-10-14T07:06:31;12.18;;;7.68;;
22754;SDS011;11544;42.020;23.094;2022-10-14T07:08:57;12.48;;;7.82;;
22754;SDS011;11544;42.020;23.094;2022-10-14T07:11:22;13.07;;;8.55;;
22754;SDS011;11544;42.020;23.094;2022-10-14T07:13:48;12.00;;;8.77;;
22754;SDS011;11544;42.020;23.094;2022-10-14T07:16:14;12.60;;;7.93;;
22754;SDS011;11544;42.020;23.094;2022-10-14T07:18:40;13.07;;;7.78;;
22754;SDS011;11544;42.020;23.094;2022-10-14T07:21:05;11.00;;;8.13;;
22754;SDS011;11544;42.020;23.094;2022-10-14T07:23:32;12.90;;;8.55;;
22754;SDS011;11544;42.020;23.094;2022-10-14T07:25:58;10.95;;;8.15;;
22754;SDS011;11544;42.020;23.094;2022-10-14T07:28:24;12.73;;;8.45;;
22754;SDS011;11544;42.020;23.094;2022-10-14T07:30:57;11.27;;;8.15;;
22754;SDS011;11544;42.020;23.094;2022-10-14T07:33:27;12.95;;;8.32;;
22754;SDS011;11544;42.020;23.094;2022-10-14T07:35:53;15.10;;;9.60;;
22754;SDS011;11544;42.020;23.094;2022-10-14T07:38:20;13.43;;;9.18;;
22754;SDS011;11544;42.020;23.094;2022-10-14T07:40:54;14.15;;;9.52;;
22754;SDS011;11544;42.020;23.094;2022-10-14T07:43:25;15.07;;;9.50;;
22754;SDS011;11544;42.020;23.094;2022-10-14T07:45:51;12.25;;;7.90;;
22754;SDS011;11544;42.020;23.094;2022-10-14T07:48:25;11.90;;;8.63;;
22754;SDS011;11544;42.020;23.094;2022-10-14T07:50:52;13.48;;;9.27;;
22754;SDS011;11544;42.020;23.094;2022-10-14T07:53:18;13.95;;;9.63;;
22754;SDS011;11544;42.020;23.094;2022-10-14T07:55:44;12.40;;;8.02;;
22754;SDS011;11544;42.020;23.094;2022-10-14T07:58:22;13.48;;;9.32;;
22754;SDS011;11544;42.020;23.094;2022-10-14T08:00:50;15.07;;;9.73;;
22754;SDS011;11544;42.020;23.094;2022-10-14T08:03:17;13.38;;;8.77;;
22754;SDS011;11544;42.020;23.094;2022-10-14T08:05:43;13.98;;;8.68;;
22754;SDS011;11544;42.020;23.094;2022-10-14T08:08:09;15.35;;;8.98;;
22754;SDS011;11544;42.020;23.094;2022-10-14T08:10:36;12.05;;;8.63;;
22754;SDS011;11544;42.020;23.094;2022-10-14T08:13:03;14.80;;;9.23;;
22754;SDS011;11544;42.020;23.094;2022-10-14T08:15:33;12.75;;;8.50;;
22754;SDS011;11544;42.020;23.094;2022-10-14T08:18:03;13.45;;;8.40;;
22754;SDS011;11544;42.020;23.094;2022-10-14T08:20:30;12.38;;;8.25;;
22754;SDS011;11544;42.020;23.094;2022-10-14T08:22:56;12.48;;;9.13;;
22754;SDS011;11544;42.020;23.094;2022-10-14T08:25:22;14.57;;;9.18;;
22754;SDS011;11544;42.020;23.094;2022-10-14T08:27:49;10.82;;;7.40;;
22754;SDS011;11544;42.020;23.094;2022-10-14T08:30:15;9.60;;;6.93;;
22754;SDS011;11544;42.020;23.094;2022-10-14T08:32:42;11.77;;;7.88;;
22754;SDS011;11544;42.020;23.094;2022-10-14T08:35:08;12.75;;;7.57;;
22754;SDS011;11544;42.020;23.094;2022-10-14T08:37:34;13.25;;;7.53;;
22754;SDS011;11544;42.020;23.094;2022-10-14T08:40:00;10.77;;;7.40;;
22754;SDS011;11544;42.020;23.094;2022-10-14T08:42:34;13.77;;;7.47;;
22754;SDS011;11544;42.020;23.094;2022-10-14T08:45:13;8.02;;;6.50;;
22754;SDS011;11544;42.020;23.094;2022-10-14T08:47:51;7.80;;;6.25;;
22754;SDS011;11544;42.020;23.094;2022-10-14T08:50:22;11.05;;;7.43;;
22754;SDS011;11544;42.020;23.094;2022-10-14T08:53:12;10.43;;;7.30;;
22754;SDS011;11544;42.020;23.094;2022-10-14T08:56:03;10.13;;;6.78;;
22754;SDS011;11544;42.020;23.094;2022-10-14T08:58:33;11.88;;;7.65;;
22754;SDS011;11544;42.020;23.094;2022-10-14T09:03:44;10.90;;;7.97;;
22754;SDS011;11544;42.020;23.094;2022-10-14T09:08:52;11.15;;;6.75;;
22754;SDS011;11544;42.020;23.094;2022-10-14T09:11:25;9.63;;;7.35;;
22754;SDS011;11544;42.020;23.094;2022-10-14T09:13:56;13.43;;;7.75;;
22754;SDS011;11544;42.020;23.094;2022-10-14T09:16:30;9.55;;;7.25;;
22754;SDS011;11544;42.020;23.094;2022-10-14T09:19:02;13.30;;;7.20;;
22754;SDS011;11544;42.020;23.094;2022-10-14T09:24:00;10.43;;;7.80;;
22754;SDS011;11544;42.020;23.094;2022-10-14T09:26:45;9.38;;;6.28;;
22754;SDS011;11544;42.020;23.094;2022-10-14T09:29:18;10.35;;;6.25;;
22754;SDS011;11544;42.020;23.094;2022-10-14T09:31:49;10.80;;;7.32;;
22754;SDS011;11544;42.020;23.094;2022-10-14T09:34:18;10.27;;;7.63;;
22754;SDS011;11544;42.020;23.094;2022-10-14T09:36:49;10.25;;;7.35;;
22754;SDS011;11544;42.020;23.094;2022-10-14T09:39:16;10.48;;;7.13;;
22754;SDS011;11544;42.020;23.094;2022-10-14T09:41:42;11.88;;;7.13;;
22754;SDS011;11544;42.020;23.094;2022-10-14T09:46:47;9.60;;;6.97;;
22754;SDS011;11544;42.020;23.094;2022-10-14T09:49:31;9.20;;;6.50;;
22754;SDS011;11544;42.020;23.094;2022-10-14T09:52:21;11.52;;;6.60;;
22754;SDS011;11544;42.020;23.094;2022-10-14T09:54:56;10.35;;;6.65;;
22754;SDS011;11544;42.020;23.094;2022-10-14T09:57:25;12.27;;;8.18;;
22754;SDS011;11544;42.020;23.094;2022-10-14T09:59:56;11.93;;;7.65;;
22754;SDS011;11544;42.020;23.094;2022-10-14T10:02:31;10.60;;;8.13;;
22754;SDS011;11544;42.020;23.094;2022-10-14T10:05:26;11.65;;;7.70;;
22754;SDS011;11544;42.020;23.094;2022-10-14T10:10:39;11.50;;;7.97;;
22754;SDS011;11544;42.020;23.094;2022-10-14T10:13:20;10.70;;;7.32;;
22754;SDS011;11544;42.020;23.094;2022-10-14T10:15:56;11.18;;;6.65;;
22754;SDS011;11544;42.020;23.094;2022-10-14T10:18:24;9.00;;;6.78;;
22754;SDS011;11544;42.020;23.094;2022-10-14T10:21:00;13.10;;;8.02;;
22754;SDS011;11544;42.020;23.094;2022-10-14T10:23:31;12.60;;;8.65;;
22754;SDS011;11544;42.020;23.094;2022-10-14T10:26:18;9.43;;;6.85;;
22754;SDS011;11544;42.020;23.094;2022-10-14T10:28:50;12.68;;;8.55;;
22754;SDS011;11544;42.020;23.094;2022-10-14T10:31:18;13.50;;;8.30;;
22754;SDS011;11544;42.020;23.094;2022-10-14T10:33:51;9.50;;;7.57;;
22754;SDS011;11544;42.020;23.094;2022-10-14T10:36:39;9.98;;;7.20;;
22754;SDS011;11544;42.020;23.094;2022-10-14T11:00:47;12.18;;;8.02;;
22754;SDS011;11544;42.020;23.094;2022-10-14T11:03:28;10.57;;;7.20;;
22754;SDS011;11544;42.020;23.094;2022-10-14T11:09:18;11.45;;;7.85;;
22754;SDS011;11544;42.020;23.094;2022-10-14T11:15:16;12.45;;;7.80;;
22754;SDS011;11544;42.020;23.094;2022-10-14T11:18:02;11.27;;;7.20;;
22754;SDS011;11544;42.020;23.094;2022-10-14T11:20:42;13.05;;;8.13;;
22754;SDS011;11544;42.020;23.094;2022-10-14T11:23:41;11.93;;;8.65;;
22754;SDS011;11544;42.020;23.094;2022-10-14T11:42:51;13.27;;;8.15;;
22754;SDS011;11544;42.020;23.094;2022-10-14T11:45:56;13.18;;;8.48;;
22754;SDS011;11544;42.020;23.094;2022-10-14T11:51:35;10.13;;;7.32;;
22754;SDS011;11544;42.020;23.094;2022-10-14T11:54:04;10.10;;;7.15;;
22754;SDS011;11544;42.020;23.094;2022-10-14T11:56:44;11.25;;;8.55;;
22754;SDS011;11544;42.020;23.094;2022-10-14T12:01:53;11.60;;;8.10;;
22754;SDS011;11544;42.020;23.094;2022-10-14T12:04:30;11.70;;;8.70;;
22754;SDS011;11544;42.020;23.094;2022-10-14T12:07:03;12.57;;;8.05;;
22754;SDS011;11544;42.020;23.094;2022-10-14T12:09:38;15.10;;;7.85;;
22754;SDS011;11544;42.020;23.094;2022-10-14T12:12:13;13.20;;;8.98;;
22754;SDS011;11544;42.020;23.094;2022-10-14T12:14:53;10.45;;;8.25;;
22754;SDS011;11544;42.020;23.094;2022-10-14T12:17:28;15.00;;;8.75;;
22754;SDS011;11544;42.020;23.094;2022-10-14T12:20:00;13.68;;;8.35;;
22754;SDS011;11544;42.020;23.094;2022-10-14T12:22:30;13.70;;;8.35;;
22754;SDS011;11544;42.020;23.094;2022-10-14T12:25:02;10.35;;;6.97;;
22754;SDS011;11544;42.020;23.094;2022-10-14T12:27:35;9.65;;;6.85;;
22754;SDS011;11544;42.020;23.094;2022-10-14T12:30:01;7.25;;;5.63;;
22754;SDS011;11544;42.020;23.094;2022-10-14T12:32:28;10.30;;;6.05;;
22754;SDS011;11544;42.020;23.094;2022-10-14T12:34:57;11.82;;;7.03;;
22754;SDS011;11544;42.020;23.094;2022-10-14T12:42:28;8.93;;;5.88;;
22754;SDS011;11544;42.020;23.094;2022-10-14T12:45:00;8.93;;;5.97;;
22754;SDS011;11544;42.020;23.094;2022-10-14T12:47:38;6.47;;;5.30;;
22754;SDS011;11544;42.020;23.094;2022-10-14T12:50:21;10.68;;;6.15;;
22754;SDS011;11544;42.020;23.094;2022-10-14T12:53:00;11.30;;;6.20;;
22754;SDS011;11544;42.020;23.094;2022-10-14T12:55:32;8.05;;;5.95;;
22754;SDS011;11544;42.020;23.094;2022-10-14T12:58:12;10.80;;;7.30;;
22754;SDS011;11544;42.020;23.094;2022-10-14T13:00:51;11.45;;;6.28;;
22754;SDS011;11544;42.020;23.094;2022-10-14T13:03:20;7.10;;;5.65;;
22754;SDS011;11544;42.020;23.094;2022-10-14T13:05:51;4.78;;;2.63;;
22754;SDS011;11544;42.020;23.094;2022-10-14T13:11:07;6.82;;;5.35;;
22754;SDS011;11544;42.020;23.094;2022-10-14T13:16:10;7.72;;;4.63;;
22754;SDS011;11544;42.020;23.094;2022-10-14T13:19:00;6.43;;;4.55;;
22754;SDS011;11544;42.020;23.094;2022-10-14T13:26:42;5.85;;;3.95;;
22754;SDS011;11544;42.020;23.094;2022-10-14T13:34:31;4.85;;;3.60;;
22754;SDS011;11544;42.020;23.094;2022-10-14T13:39:55;12.98;;;6.88;;
22754;SDS011;11544;42.020;23.094;2022-10-14T13:42:31;9.45;;;6.50;;
22754;SDS011;11544;42.020;23.094;2022-10-14T13:45:09;9.20;;;6.55;;
22754;SDS011;11544;42.020;23.094;2022-10-14T13:47:42;8.20;;;6.18;;
22754;SDS011;11544;42.020;23.094;2022-10-14T13:50:15;9.50;;;5.97;;
22754;SDS011;11544;42.020;23.094;2022-10-14T13:52:55;6.47;;;4.50;;
22754;SDS011;11544;42.020;23.094;2022-10-14T13:55:23;7.03;;;4.93;;
22754;SDS011;11544;42.020;23.094;2022-10-14T13:58:01;5.93;;;4.13;;
22754;SDS011;11544;42.020;23.094;2022-10-14T14:00:33;7.38;;;4.65;;
22754;SDS011;11544;42.020;23.094;2022-10-14T14:03:02;5.50;;;3.95;;
22754;SDS011;11544;42.020;23.094;2022-10-14T14:05:40;6.38;;;4.70;;
22754;SDS011;11544;42.020;23.094;2022-10-14T14:08:11;7.55;;;4.03;;
22754;SDS011;11544;42.020;23.094;2022-10-14T14:10:55;6.60;;;4.35;;
22754;SDS011;11544;42.020;23.094;2022-10-14T14:13:32;5.85;;;3.70;;
22754;SDS011;11544;42.020;23.094;2022-10-14T14:16:16;5.28;;;3.63;;
22754;SDS011;11544;42.020;23.094;2022-10-14T14:18:46;4.63;;;3.60;;
22754;SDS011;11544;42.020;23.094;2022-10-14T14:21:13;5.55;;;3.63;;
22754;SDS011;11544;42.020;23.094;2022-10-14T14:23:51;6.15;;;3.40;;
22754;SDS011;11544;42.020;23.094;2022-10-14T14:26:19;5.82;;;4.07;;
22754;SDS011;11544;42.020;23.094;2022-10-14T14:28:57;5.93;;;3.17;;
22754;SDS011;11544;42.020;23.094;2022-10-14T14:31:23;4.93;;;3.53;;
22754;SDS011;11544;42.020;23.094;2022-10-14T14:33:54;6.10;;;3.53;;
22754;SDS011;11544;42.020;23.094;2022-10-14T14:36:23;6.82;;;3.95;;
22754;SDS011;11544;42.020;23.094;2022-10-14T14:38:53;7.00;;;3.72;;
22754;SDS011;11544;42.020;23.094;2022-10-14T14:41:25;6.07;;;3.25;;
22754;SDS011;11544;42.020;23.094;2022-10-14T14:43:57;4.90;;;3.00;;
22754;SDS011;11544;42.020;23.094;2022-10-14T14:48:59;3.85;;;2.90;;
22754;SDS011;11544;42.020;23.094;2022-10-14T14:51:33;4.22;;;3.03;;
22754;SDS011;11544;42.020;23.094;2022-10-14T14:54:01;7.40;;;3.67;;
22754;SDS011;11544;42.020;23.094;2022-10-14T14:56:33;6.22;;;4.28;;
22754;SDS011;11544;42.020;23.094;2022-10-14T15:01:56;5.78;;;3.75;;
22754;SDS011;11544;42.020;23.094;2022-10-14T15:04:25;4.30;;;3.45;;
22754;SDS011;11544;42.020;23.094;2022-10-14T15:07:11;3.92;;;3.17;;
22754;SDS011;11544;42.020;23.094;2022-10-14T15:10:23;6.28;;;3.55;;
22754;SDS011;11544;42.020;23.094;2022-10-14T15:12:53;4.57;;;3.13;;
22754;SDS011;11544;42.020;23.094;2022-10-14T15:15:29;4.53;;;2.88;;
22754;SDS011;11544;42.020;23.094;2022-10-14T15:18:11;4.70;;;3.20;;
22754;SDS011;11544;42.020;23.094;2022-10-14T15:20:37;3.42;;;2.58;;
22754;SDS011;11544;42.020;23.094;2022-10-14T15:31:39;6.65;;;3.50;;
22754;SDS011;11544;42.020;23.094;2022-10-14T15:34:14;3.50;;;2.92;;
22754;SDS011;11544;42.020;23.094;2022-10-14T15:36:42;3.58;;;2.80;;
22754;SDS011;11544;42.020;23.094;2022-10-14T15:39:12;4.25;;;2.75;;
22754;SDS011;11544;42.020;23.094;2022-10-14T15:41:38;4.78;;;2.70;;
22754;SDS011;11544;42.020;23.094;2022-10-14T15:44:05;3.22;;;2.47;;
22754;SDS011;11544;42.020;23.094;2022-10-14T15:46:30;2.55;;;2.13;;
22754;SDS011;11544;42.020;23.094;2022-10-14T15:49:19;3.17;;;2.60;;
22754;SDS011;11544;42.020;23.094;2022-10-14T15:51:50;3.03;;;2.50;;
22754;SDS011;11544;42.020;23.094;2022-10-14T15:54:16;6.68;;;2.80;;
22754;SDS011;11544;42.020;23.094;2022-10-14T15:56:41;4.10;;;2.67;;
22754;SDS011;11544;42.020;23.094;2022-10-14T15:59:07;2.95;;;2.28;;
22754;SDS011;11544;42.020;23.094;2022-10-14T16:01:33;2.83;;;2.10;;
22754;SDS011;11544;42.020;23.094;2022-10-14T16:04:01;4.57;;;2.85;;
22754;SDS011;11544;42.020;23.094;2022-10-14T16:06:28;5.40;;;2.63;;
22754;SDS011;11544;42.020;23.094;2022-10-14T16:08:55;4.10;;;2.60;;
22754;SDS011;11544;42.020;23.094;2022-10-14T16:11:22;4.10;;;2.60;;
22754;SDS011;11544;42.020;23.094;2022-10-14T16:13:50;4.30;;;2.85;;
22754;SDS011;11544;42.020;23.094;2022-10-14T16:16:18;5.70;;;3.80;;
22754;SDS011;11544;42.020;23.094;2022-10-14T16:19:08;5.05;;;3.25;;
22754;SDS011;11544;42.020;23.094;2022-10-14T16:21:34;6.88;;;3.58;;
22754;SDS011;11544;42.020;23.094;2022-10-14T16:24:01;7.43;;;3.75;;
22754;SDS011;11544;42.020;23.094;2022-10-14T16:26:27;2.85;;;2.00;;
22754;SDS011;11544;42.020;23.094;2022-10-14T16:28:53;9.10;;;5.13;;
22754;SDS011;11544;42.020;23.094;2022-10-14T16:31:19;5.55;;;2.70;;
22754;SDS011;11544;42.020;23.094;2022-10-14T16:33:49;12.23;;;4.53;;
22754;SDS011;11544;42.020;23.094;2022-10-14T16:36:15;20.75;;;8.18;;
22754;SDS011;11544;42.020;23.094;2022-10-14T16:38:42;8.18;;;4.13;;
22754;SDS011;11544;42.020;23.094;2022-10-14T16:41:08;4.72;;;2.88;;
22754;SDS011;11544;42.020;23.094;2022-10-14T16:43:40;3.60;;;2.53;;
22754;SDS011;11544;42.020;23.094;2022-10-14T16:46:06;3.20;;;2.47;;
22754;SDS011;11544;42.020;23.094;2022-10-14T16:48:35;3.75;;;2.70;;
22754;SDS011;11544;42.020;23.094;2022-10-14T16:51:00;6.00;;;2.70;;
22754;SDS011;11544;42.020;23.094;2022-10-14T16:53:27;4.32;;;2.63;;